sensor_id;sensor_type;location;lat;lon;timestamp;P1;durP1;ratioP1;P2;durP2;ratioP2
77018;SDS011;66044;53.142;17.962;2023-04-23T00:00:21;26.60;;;12.40;;
77018;SDS011;66044;53.142;17.962;2023-04-23T00:03:08;22.50;;;12.00;;
77018;SDS011;66044;53.142;17.962;2023-04-23T00:05:39;21.30;;;11.80;;
77018;SDS011;66044;53.142;17.962;2023-04-23T00:08:07;21.40;;;12.10;;
77018;SDS011;66044;53.142;17.962;2023-04-23T00:10:35;21.80;;;11.90;;
77018;SDS011;66044;53.142;17.962;2023-04-23T00:13:02;21.90;;;11.60;;
77018;SDS011;66044;53.142;17.962;2023-04-23T00:15:29;22.90;;;11.60;;
77018;SDS011;66044;53.142;17.962;2023-04-23T00:17:56;21.20;;;11.30;;
77018;SDS011;66044;53.142;17.962;2023-04-23T00:20:22;19.80;;;11.60;;
77018;SDS011;66044;53.142;17.962;2023-04-23T00:22:49;22.60;;;11.50;;
77018;SDS011;66044;53.142;17.962;2023-04-23T00:25:15;19.80;;;10.80;;
77018;SDS011;66044;53.142;17.962;2023-04-23T00:27:42;20.10;;;10.60;;
77018;SDS011;66044;53.142;17.962;2023-04-23T00:30:08;19.10;;;10.80;;
77018;SDS011;66044;53.142;17.962;2023-04-23T00:32:35;16.40;;;9.10;;
77018;SDS011;66044;53.142;17.962;2023-04-23T00:35:02;16.00;;;8.90;;
77018;SDS011;66044;53.142;17.962;2023-04-23T00:37:28;16.20;;;9.30;;
77018;SDS011;66044;53.142;17.962;2023-04-23T00:39:55;17.20;;;9.20;;
77018;SDS011;66044;53.142;17.962;2023-04-23T00:42:21;15.30;;;8.80;;
77018;SDS011;66044;53.142;17.962;2023-04-23T00:44:47;16.80;;;8.80;;
77018;SDS011;66044;53.142;17.962;2023-04-23T00:47:16;14.80;;;8.00;;
77018;SDS011;66044;53.142;17.962;2023-04-23T00:49:43;17.80;;;8.80;;
77018;SDS011;66044;53.142;17.962;2023-04-23T00:52:10;16.20;;;9.10;;
77018;SDS011;66044;53.142;17.962;2023-04-23T00:54:37;18.10;;;9.90;;
77018;SDS011;66044;53.142;17.962;2023-04-23T00:57:03;20.30;;;10.30;;
77018;SDS011;66044;53.142;17.962;2023-04-23T00:59:30;19.00;;;10.30;;
77018;SDS011;66044;53.142;17.962;2023-04-23T01:01:56;19.60;;;10.70;;
77018;SDS011;66044;53.142;17.962;2023-04-23T01:04:24;19.50;;;11.20;;
77018;SDS011;66044;53.142;17.962;2023-04-23T01:06:54;19.70;;;10.80;;
77018;SDS011;66044;53.142;17.962;2023-04-23T01:09:22;17.90;;;10.60;;
77018;SDS011;66044;53.142;17.962;2023-04-23T01:11:49;18.80;;;10.40;;
77018;SDS011;66044;53.142;17.962;2023-04-23T01:14:16;16.40;;;10.20;;
77018;SDS011;66044;53.142;17.962;2023-04-23T01:16:43;19.90;;;10.80;;
77018;SDS011;66044;53.142;17.962;2023-04-23T01:19:09;16.50;;;10.40;;
77018;SDS011;66044;53.142;17.962;2023-04-23T01:21:37;17.90;;;9.80;;
77018;SDS011;66044;53.142;17.962;2023-04-23T01:24:07;18.10;;;9.30;;
77018;SDS011;66044;53.142;17.962;2023-04-23T01:26:34;15.70;;;8.80;;
77018;SDS011;66044;53.142;17.962;2023-04-23T01:29:01;15.00;;;8.80;;
77018;SDS011;66044;53.142;17.962;2023-04-23T01:31:28;15.90;;;8.60;;
77018;SDS011;66044;53.142;17.962;2023-04-23T01:33:55;14.30;;;8.40;;
77018;SDS011;66044;53.142;17.962;2023-04-23T01:36:23;16.60;;;8.70;;
77018;SDS011;66044;53.142;17.962;2023-04-23T01:38:50;15.20;;;8.70;;
77018;SDS011;66044;53.142;17.962;2023-04-23T01:41:17;18.00;;;9.60;;
77018;SDS011;66044;53.142;17.962;2023-04-23T01:43:45;17.80;;;9.90;;
77018;SDS011;66044;53.142;17.962;2023-04-23T01:46:11;18.70;;;10.30;;
77018;SDS011;66044;53.142;17.962;2023-04-23T01:48:38;23.60;;;11.60;;
77018;SDS011;66044;53.142;17.962;2023-04-23T01:51:05;20.20;;;11.40;;
77018;SDS011;66044;53.142;17.962;2023-04-23T01:53:31;20.20;;;11.90;;
77018;SDS011;66044;53.142;17.962;2023-04-23T01:55:58;20.90;;;11.20;;
77018;SDS011;66044;53.142;17.962;2023-04-23T01:58:25;19.90;;;11.20;;
77018;SDS011;66044;53.142;17.962;2023-04-23T02:00:52;20.10;;;10.90;;
77018;SDS011;66044;53.142;17.962;2023-04-23T02:03:18;21.40;;;11.20;;
77018;SDS011;66044;53.142;17.962;2023-04-23T02:05:45;19.60;;;10.00;;
77018;SDS011;66044;53.142;17.962;2023-04-23T02:08:11;17.80;;;10.40;;
77018;SDS011;66044;53.142;17.962;2023-04-23T02:10:38;19.80;;;10.10;;
77018;SDS011;66044;53.142;17.962;2023-04-23T02:13:04;19.20;;;9.90;;
77018;SDS011;66044;53.142;17.962;2023-04-23T02:15:31;17.70;;;9.10;;
77018;SDS011;66044;53.142;17.962;2023-04-23T02:17:57;15.20;;;8.30;;
77018;SDS011;66044;53.142;17.962;2023-04-23T02:20:24;19.10;;;9.20;;
77018;SDS011;66044;53.142;17.962;2023-04-23T02:22:50;18.20;;;9.10;;
77018;SDS011;66044;53.142;17.962;2023-04-23T02:25:17;14.70;;;8.20;;
77018;SDS011;66044;53.142;17.962;2023-04-23T02:27:43;17.00;;;9.30;;
77018;SDS011;66044;53.142;17.962;2023-04-23T02:30:10;16.60;;;9.20;;
77018;SDS011;66044;53.142;17.962;2023-04-23T02:32:37;18.50;;;10.00;;
77018;SDS011;66044;53.142;17.962;2023-04-23T02:35:04;18.60;;;9.90;;
77018;SDS011;66044;53.142;17.962;2023-04-23T02:37:31;20.40;;;10.80;;
77018;SDS011;66044;53.142;17.962;2023-04-23T02:39:58;20.50;;;10.60;;
77018;SDS011;66044;53.142;17.962;2023-04-23T02:42:25;18.80;;;9.80;;
77018;SDS011;66044;53.142;17.962;2023-04-23T02:44:51;22.00;;;11.20;;
77018;SDS011;66044;53.142;17.962;2023-04-23T02:47:18;19.70;;;10.50;;
77018;SDS011;66044;53.142;17.962;2023-04-23T02:49:44;19.50;;;9.80;;
77018;SDS011;66044;53.142;17.962;2023-04-23T02:52:10;20.50;;;11.30;;
77018;SDS011;66044;53.142;17.962;2023-04-23T02:54:37;17.20;;;9.20;;
77018;SDS011;66044;53.142;17.962;2023-04-23T02:57:04;18.20;;;9.60;;
77018;SDS011;66044;53.142;17.962;2023-04-23T02:59:31;15.80;;;9.50;;
77018;SDS011;66044;53.142;17.962;2023-04-23T03:01:57;15.90;;;9.30;;
77018;SDS011;66044;53.142;17.962;2023-04-23T03:04:24;15.40;;;8.30;;
77018;SDS011;66044;53.142;17.962;2023-04-23T03:06:50;16.70;;;9.10;;
77018;SDS011;66044;53.142;17.962;2023-04-23T03:09:17;16.50;;;9.40;;
77018;SDS011;66044;53.142;17.962;2023-04-23T03:11:43;17.50;;;8.60;;
77018;SDS011;66044;53.142;17.962;2023-04-23T03:14:10;16.70;;;9.70;;
77018;SDS011;66044;53.142;17.962;2023-04-23T03:16:36;16.80;;;9.30;;
77018;SDS011;66044;53.142;17.962;2023-04-23T03:19:03;19.20;;;9.40;;
77018;SDS011;66044;53.142;17.962;2023-04-23T03:21:29;17.90;;;9.50;;
77018;SDS011;66044;53.142;17.962;2023-04-23T03:23:56;17.90;;;9.00;;
77018;SDS011;66044;53.142;17.962;2023-04-23T03:26:22;18.20;;;10.20;;
77018;SDS011;66044;53.142;17.962;2023-04-23T03:28:49;17.90;;;10.20;;
77018;SDS011;66044;53.142;17.962;2023-04-23T03:31:15;16.00;;;9.30;;
77018;SDS011;66044;53.142;17.962;2023-04-23T03:33:42;16.80;;;9.60;;
77018;SDS011;66044;53.142;17.962;2023-04-23T03:36:08;17.70;;;9.10;;
77018;SDS011;66044;53.142;17.962;2023-04-23T03:38:35;17.50;;;9.50;;
77018;SDS011;66044;53.142;17.962;2023-04-23T03:41:01;18.40;;;9.40;;
77018;SDS011;66044;53.142;17.962;2023-04-23T03:43:28;16.20;;;9.00;;
77018;SDS011;66044;53.142;17.962;2023-04-23T03:45:54;16.60;;;8.80;;
77018;SDS011;66044;53.142;17.962;2023-04-23T03:48:20;17.80;;;10.40;;
77018;SDS011;66044;53.142;17.962;2023-04-23T03:50:47;17.50;;;10.00;;
77018;SDS011;66044;53.142;17.962;2023-04-23T03:53:13;17.50;;;9.30;;
77018;SDS011;66044;53.142;17.962;2023-04-23T03:55:40;16.20;;;9.30;;
77018;SDS011;66044;53.142;17.962;2023-04-23T03:58:06;22.20;;;11.70;;
77018;SDS011;66044;53.142;17.962;2023-04-23T04:00:34;18.60;;;11.30;;
77018;SDS011;66044;53.142;17.962;2023-04-23T04:03:01;20.00;;;9.80;;
77018;SDS011;66044;53.142;17.962;2023-04-23T04:05:28;18.70;;;11.00;;
77018;SDS011;66044;53.142;17.962;2023-04-23T04:07:55;21.30;;;11.40;;
77018;SDS011;66044;53.142;17.962;2023-04-23T04:10:22;18.00;;;10.10;;
77018;SDS011;66044;53.142;17.962;2023-04-23T04:12:48;17.20;;;9.70;;
77018;SDS011;66044;53.142;17.962;2023-04-23T04:15:15;18.60;;;10.00;;
77018;SDS011;66044;53.142;17.962;2023-04-23T04:17:42;18.80;;;9.20;;
77018;SDS011;66044;53.142;17.962;2023-04-23T04:20:10;19.00;;;9.40;;
77018;SDS011;66044;53.142;17.962;2023-04-23T04:22:37;19.70;;;9.90;;
77018;SDS011;66044;53.142;17.962;2023-04-23T04:25:04;16.80;;;8.50;;
77018;SDS011;66044;53.142;17.962;2023-04-23T04:27:31;17.00;;;8.90;;
77018;SDS011;66044;53.142;17.962;2023-04-23T04:29:59;18.20;;;10.00;;
77018;SDS011;66044;53.142;17.962;2023-04-23T04:32:26;18.40;;;9.80;;
77018;SDS011;66044;53.142;17.962;2023-04-23T04:34:53;17.00;;;8.70;;
77018;SDS011;66044;53.142;17.962;2023-04-23T04:37:19;19.80;;;10.00;;
77018;SDS011;66044;53.142;17.962;2023-04-23T04:39:46;18.90;;;10.30;;
77018;SDS011;66044;53.142;17.962;2023-04-23T04:42:13;18.80;;;9.70;;
77018;SDS011;66044;53.142;17.962;2023-04-23T04:44:39;15.90;;;9.70;;
77018;SDS011;66044;53.142;17.962;2023-04-23T04:47:06;19.60;;;10.80;;
77018;SDS011;66044;53.142;17.962;2023-04-23T04:49:33;21.70;;;11.70;;
77018;SDS011;66044;53.142;17.962;2023-04-23T04:51:59;18.90;;;10.50;;
77018;SDS011;66044;53.142;17.962;2023-04-23T04:54:25;21.50;;;11.70;;
77018;SDS011;66044;53.142;17.962;2023-04-23T04:56:52;20.60;;;11.30;;
77018;SDS011;66044;53.142;17.962;2023-04-23T04:59:18;19.40;;;11.50;;
77018;SDS011;66044;53.142;17.962;2023-04-23T05:01:45;18.50;;;10.70;;
77018;SDS011;66044;53.142;17.962;2023-04-23T05:04:11;22.60;;;12.60;;
77018;SDS011;66044;53.142;17.962;2023-04-23T05:06:38;20.50;;;10.90;;
77018;SDS011;66044;53.142;17.962;2023-04-23T05:09:04;18.00;;;11.90;;
77018;SDS011;66044;53.142;17.962;2023-04-23T05:11:31;21.20;;;12.20;;
77018;SDS011;66044;53.142;17.962;2023-04-23T05:13:57;19.80;;;11.40;;
77018;SDS011;66044;53.142;17.962;2023-04-23T05:16:24;18.20;;;10.60;;
77018;SDS011;66044;53.142;17.962;2023-04-23T05:18:50;20.70;;;11.90;;
77018;SDS011;66044;53.142;17.962;2023-04-23T05:21:17;17.60;;;11.00;;
77018;SDS011;66044;53.142;17.962;2023-04-23T05:23:44;17.60;;;11.20;;
77018;SDS011;66044;53.142;17.962;2023-04-23T05:26:11;18.80;;;11.60;;
77018;SDS011;66044;53.142;17.962;2023-04-23T05:28:37;16.20;;;10.10;;
77018;SDS011;66044;53.142;17.962;2023-04-23T05:31:03;19.60;;;10.40;;
77018;SDS011;66044;53.142;17.962;2023-04-23T05:33:30;14.80;;;9.30;;
77018;SDS011;66044;53.142;17.962;2023-04-23T05:35:57;15.20;;;9.60;;
77018;SDS011;66044;53.142;17.962;2023-04-23T05:38:24;16.30;;;9.80;;
77018;SDS011;66044;53.142;17.962;2023-04-23T05:40:50;16.90;;;9.00;;
77018;SDS011;66044;53.142;17.962;2023-04-23T05:43:17;14.70;;;9.30;;
77018;SDS011;66044;53.142;17.962;2023-04-23T05:45:44;16.30;;;8.70;;
77018;SDS011;66044;53.142;17.962;2023-04-23T05:48:10;17.70;;;9.50;;
77018;SDS011;66044;53.142;17.962;2023-04-23T05:50:37;17.70;;;9.40;;
77018;SDS011;66044;53.142;17.962;2023-04-23T05:53:03;14.60;;;7.90;;
77018;SDS011;66044;53.142;17.962;2023-04-23T05:55:30;15.50;;;8.40;;
77018;SDS011;66044;53.142;17.962;2023-04-23T05:57:56;13.40;;;8.20;;
77018;SDS011;66044;53.142;17.962;2023-04-23T06:00:23;12.40;;;7.80;;
77018;SDS011;66044;53.142;17.962;2023-04-23T06:02:49;13.60;;;8.10;;
77018;SDS011;66044;53.142;17.962;2023-04-23T06:05:16;14.60;;;7.90;;
77018;SDS011;66044;53.142;17.962;2023-04-23T06:07:42;13.00;;;7.40;;
77018;SDS011;66044;53.142;17.962;2023-04-23T06:10:09;15.80;;;8.00;;
77018;SDS011;66044;53.142;17.962;2023-04-23T06:12:36;13.90;;;7.70;;
77018;SDS011;66044;53.142;17.962;2023-04-23T06:15:05;12.10;;;7.60;;
77018;SDS011;66044;53.142;17.962;2023-04-23T06:17:33;10.70;;;7.50;;
77018;SDS011;66044;53.142;17.962;2023-04-23T06:20:00;12.30;;;7.10;;
77018;SDS011;66044;53.142;17.962;2023-04-23T06:22:27;12.20;;;7.50;;
77018;SDS011;66044;53.142;17.962;2023-04-23T06:24:53;12.10;;;6.40;;
77018;SDS011;66044;53.142;17.962;2023-04-23T06:27:20;13.40;;;6.90;;
77018;SDS011;66044;53.142;17.962;2023-04-23T06:29:46;9.00;;;5.40;;
77018;SDS011;66044;53.142;17.962;2023-04-23T06:32:13;10.80;;;5.90;;
77018;SDS011;66044;53.142;17.962;2023-04-23T06:34:39;9.10;;;5.40;;
77018;SDS011;66044;53.142;17.962;2023-04-23T06:37:06;10.60;;;6.10;;
77018;SDS011;66044;53.142;17.962;2023-04-23T06:39:33;9.60;;;6.00;;
77018;SDS011;66044;53.142;17.962;2023-04-23T06:42:00;10.20;;;5.60;;
77018;SDS011;66044;53.142;17.962;2023-04-23T06:44:26;10.40;;;5.70;;
77018;SDS011;66044;53.142;17.962;2023-04-23T06:46:53;10.30;;;5.90;;
77018;SDS011;66044;53.142;17.962;2023-04-23T06:49:19;10.60;;;5.80;;
77018;SDS011;66044;53.142;17.962;2023-04-23T06:51:46;12.90;;;5.50;;
77018;SDS011;66044;53.142;17.962;2023-04-23T06:54:13;12.10;;;5.80;;
77018;SDS011;66044;53.142;17.962;2023-04-23T06:56:39;11.10;;;5.60;;
77018;SDS011;66044;53.142;17.962;2023-04-23T06:59:06;8.50;;;5.00;;
77018;SDS011;66044;53.142;17.962;2023-04-23T07:01:33;9.80;;;5.60;;
77018;SDS011;66044;53.142;17.962;2023-04-23T07:04:00;8.60;;;4.80;;
77018;SDS011;66044;53.142;17.962;2023-04-23T07:06:26;10.10;;;6.30;;
77018;SDS011;66044;53.142;17.962;2023-04-23T07:08:53;10.80;;;6.30;;
77018;SDS011;66044;53.142;17.962;2023-04-23T07:11:19;12.10;;;7.30;;
77018;SDS011;66044;53.142;17.962;2023-04-23T07:13:46;13.90;;;7.90;;
77018;SDS011;66044;53.142;17.962;2023-04-23T07:16:12;9.70;;;5.80;;
77018;SDS011;66044;53.142;17.962;2023-04-23T07:18:39;9.60;;;5.10;;
77018;SDS011;66044;53.142;17.962;2023-04-23T07:21:05;10.00;;;5.70;;
77018;SDS011;66044;53.142;17.962;2023-04-23T07:23:32;8.90;;;4.80;;
77018;SDS011;66044;53.142;17.962;2023-04-23T07:25:58;8.30;;;5.10;;
77018;SDS011;66044;53.142;17.962;2023-04-23T07:28:30;10.10;;;4.70;;
77018;SDS011;66044;53.142;17.962;2023-04-23T07:30:57;8.60;;;4.80;;
77018;SDS011;66044;53.142;17.962;2023-04-23T07:33:24;8.60;;;4.70;;
77018;SDS011;66044;53.142;17.962;2023-04-23T07:35:51;8.80;;;5.00;;
77018;SDS011;66044;53.142;17.962;2023-04-23T07:38:17;8.40;;;4.70;;
77018;SDS011;66044;53.142;17.962;2023-04-23T07:40:44;7.80;;;4.90;;
77018;SDS011;66044;53.142;17.962;2023-04-23T07:43:10;10.70;;;4.80;;
77018;SDS011;66044;53.142;17.962;2023-04-23T07:45:37;8.20;;;4.50;;
77018;SDS011;66044;53.142;17.962;2023-04-23T07:48:03;8.40;;;4.90;;
77018;SDS011;66044;53.142;17.962;2023-04-23T07:50:30;9.40;;;4.50;;
77018;SDS011;66044;53.142;17.962;2023-04-23T07:52:56;8.20;;;4.30;;
77018;SDS011;66044;53.142;17.962;2023-04-23T07:55:23;7.60;;;4.40;;
77018;SDS011;66044;53.142;17.962;2023-04-23T07:57:50;8.20;;;4.20;;
77018;SDS011;66044;53.142;17.962;2023-04-23T08:00:16;8.50;;;4.50;;
77018;SDS011;66044;53.142;17.962;2023-04-23T08:02:43;10.70;;;4.30;;
77018;SDS011;66044;53.142;17.962;2023-04-23T08:05:09;8.10;;;4.40;;
77018;SDS011;66044;53.142;17.962;2023-04-23T08:07:36;8.20;;;4.00;;
77018;SDS011;66044;53.142;17.962;2023-04-23T08:10:02;9.00;;;4.50;;
77018;SDS011;66044;53.142;17.962;2023-04-23T08:12:31;9.80;;;4.20;;
77018;SDS011;66044;53.142;17.962;2023-04-23T08:15:10;10.30;;;4.70;;
77018;SDS011;66044;53.142;17.962;2023-04-23T08:17:37;10.30;;;5.20;;
77018;SDS011;66044;53.142;17.962;2023-04-23T08:20:03;10.30;;;4.80;;
77018;SDS011;66044;53.142;17.962;2023-04-23T08:22:33;8.40;;;4.00;;
77018;SDS011;66044;53.142;17.962;2023-04-23T08:24:59;8.80;;;3.80;;
77018;SDS011;66044;53.142;17.962;2023-04-23T08:27:26;10.20;;;4.40;;
77018;SDS011;66044;53.142;17.962;2023-04-23T08:29:52;9.00;;;4.00;;
77018;SDS011;66044;53.142;17.962;2023-04-23T08:32:19;8.50;;;4.60;;
77018;SDS011;66044;53.142;17.962;2023-04-23T08:34:45;10.20;;;4.60;;
77018;SDS011;66044;53.142;17.962;2023-04-23T08:37:12;8.70;;;4.70;;
77018;SDS011;66044;53.142;17.962;2023-04-23T08:39:38;11.50;;;5.10;;
77018;SDS011;66044;53.142;17.962;2023-04-23T08:42:09;12.00;;;4.70;;
77018;SDS011;66044;53.142;17.962;2023-04-23T08:44:40;8.80;;;3.60;;
77018;SDS011;66044;53.142;17.962;2023-04-23T08:47:09;9.40;;;3.40;;
77018;SDS011;66044;53.142;17.962;2023-04-23T08:49:37;8.30;;;4.10;;
77018;SDS011;66044;53.142;17.962;2023-04-23T08:52:14;8.40;;;3.90;;
77018;SDS011;66044;53.142;17.962;2023-04-23T08:54:45;9.10;;;4.00;;
77018;SDS011;66044;53.142;17.962;2023-04-23T08:57:16;11.40;;;4.00;;
77018;SDS011;66044;53.142;17.962;2023-04-23T08:59:44;10.50;;;4.50;;
77018;SDS011;66044;53.142;17.962;2023-04-23T09:02:12;9.30;;;4.00;;
77018;SDS011;66044;53.142;17.962;2023-04-23T09:04:44;8.50;;;3.90;;
77018;SDS011;66044;53.142;17.962;2023-04-23T09:07:12;10.10;;;3.80;;
77018;SDS011;66044;53.142;17.962;2023-04-23T09:09:38;9.50;;;4.00;;
77018;SDS011;66044;53.142;17.962;2023-04-23T09:12:06;9.10;;;3.60;;
77018;SDS011;66044;53.142;17.962;2023-04-23T09:14:34;10.10;;;3.50;;
77018;SDS011;66044;53.142;17.962;2023-04-23T09:17:01;9.20;;;3.90;;
77018;SDS011;66044;53.142;17.962;2023-04-23T09:19:31;6.10;;;2.80;;
77018;SDS011;66044;53.142;17.962;2023-04-23T09:21:58;9.80;;;2.80;;
77018;SDS011;66044;53.142;17.962;2023-04-23T09:24:27;7.30;;;2.60;;
77018;SDS011;66044;53.142;17.962;2023-04-23T09:26:53;8.20;;;3.50;;
77018;SDS011;66044;53.142;17.962;2023-04-23T09:29:21;9.70;;;3.20;;
77018;SDS011;66044;53.142;17.962;2023-04-23T09:31:50;9.40;;;3.30;;
77018;SDS011;66044;53.142;17.962;2023-04-23T09:34:17;7.70;;;3.40;;
77018;SDS011;66044;53.142;17.962;2023-04-23T09:36:46;7.20;;;2.70;;
77018;SDS011;66044;53.142;17.962;2023-04-23T09:39:21;7.10;;;2.70;;
77018;SDS011;66044;53.142;17.962;2023-04-23T09:41:51;8.70;;;2.60;;
77018;SDS011;66044;53.142;17.962;2023-04-23T09:44:19;9.30;;;3.30;;
77018;SDS011;66044;53.142;17.962;2023-04-23T09:46:52;8.70;;;3.10;;
77018;SDS011;66044;53.142;17.962;2023-04-23T09:49:19;8.90;;;3.10;;
77018;SDS011;66044;53.142;17.962;2023-04-23T09:51:46;8.50;;;2.50;;
77018;SDS011;66044;53.142;17.962;2023-04-23T09:54:21;7.40;;;2.80;;
77018;SDS011;66044;53.142;17.962;2023-04-23T09:56:49;10.50;;;2.40;;
77018;SDS011;66044;53.142;17.962;2023-04-23T10:01:53;9.50;;;2.70;;
77018;SDS011;66044;53.142;17.962;2023-04-23T10:04:20;6.10;;;2.00;;
77018;SDS011;66044;53.142;17.962;2023-04-23T10:06:58;7.80;;;2.60;;
77018;SDS011;66044;53.142;17.962;2023-04-23T10:09:30;7.50;;;3.30;;
77018;SDS011;66044;53.142;17.962;2023-04-23T10:11:57;7.40;;;2.30;;
77018;SDS011;66044;53.142;17.962;2023-04-23T10:14:25;5.90;;;2.20;;
77018;SDS011;66044;53.142;17.962;2023-04-23T10:16:55;7.80;;;2.40;;
77018;SDS011;66044;53.142;17.962;2023-04-23T10:19:23;6.80;;;2.10;;
77018;SDS011;66044;53.142;17.962;2023-04-23T10:21:54;9.20;;;2.70;;
77018;SDS011;66044;53.142;17.962;2023-04-23T10:24:26;8.20;;;3.50;;
77018;SDS011;66044;53.142;17.962;2023-04-23T10:26:57;7.70;;;2.30;;
77018;SDS011;66044;53.142;17.962;2023-04-23T10:29:26;6.30;;;2.50;;
77018;SDS011;66044;53.142;17.962;2023-04-23T10:31:55;7.60;;;2.80;;
77018;SDS011;66044;53.142;17.962;2023-04-23T10:34:24;7.80;;;2.70;;
77018;SDS011;66044;53.142;17.962;2023-04-23T10:36:52;11.50;;;4.40;;
77018;SDS011;66044;53.142;17.962;2023-04-23T10:39:20;7.30;;;2.90;;
77018;SDS011;66044;53.142;17.962;2023-04-23T10:41:47;9.20;;;2.40;;
77018;SDS011;66044;53.142;17.962;2023-04-23T10:44:14;14.60;;;7.00;;
77018;SDS011;66044;53.142;17.962;2023-04-23T10:46:53;11.10;;;4.90;;
77018;SDS011;66044;53.142;17.962;2023-04-23T10:49:28;22.00;;;9.90;;
77018;SDS011;66044;53.142;17.962;2023-04-23T10:52:03;16.00;;;7.90;;
77018;SDS011;66044;53.142;17.962;2023-04-23T10:54:33;7.50;;;3.20;;
77018;SDS011;66044;53.142;17.962;2023-04-23T10:57:02;6.60;;;2.30;;
77018;SDS011;66044;53.142;17.962;2023-04-23T10:59:30;9.10;;;2.70;;
77018;SDS011;66044;53.142;17.962;2023-04-23T11:01:58;8.30;;;2.60;;
77018;SDS011;66044;53.142;17.962;2023-04-23T11:04:32;7.60;;;3.20;;
77018;SDS011;66044;53.142;17.962;2023-04-23T11:07:04;6.10;;;2.10;;
77018;SDS011;66044;53.142;17.962;2023-04-23T11:12:09;7.80;;;2.40;;
77018;SDS011;66044;53.142;17.962;2023-04-23T11:14:46;8.70;;;2.30;;
77018;SDS011;66044;53.142;17.962;2023-04-23T11:17:15;6.00;;;1.70;;
77018;SDS011;66044;53.142;17.962;2023-04-23T11:20:08;6.00;;;2.40;;
77018;SDS011;66044;53.142;17.962;2023-04-23T11:22:37;6.20;;;1.90;;
77018;SDS011;66044;53.142;17.962;2023-04-23T11:25:24;7.70;;;2.50;;
77018;SDS011;66044;53.142;17.962;2023-04-23T11:27:53;5.30;;;2.00;;
77018;SDS011;66044;53.142;17.962;2023-04-23T11:30:23;7.20;;;2.70;;
77018;SDS011;66044;53.142;17.962;2023-04-23T11:32:51;7.60;;;2.40;;
77018;SDS011;66044;53.142;17.962;2023-04-23T11:35:23;7.80;;;2.50;;
77018;SDS011;66044;53.142;17.962;2023-04-23T11:37:55;6.80;;;2.70;;
77018;SDS011;66044;53.142;17.962;2023-04-23T11:40:22;11.40;;;3.20;;
77018;SDS011;66044;53.142;17.962;2023-04-23T11:42:50;6.40;;;2.20;;
77018;SDS011;66044;53.142;17.962;2023-04-23T11:45:19;10.40;;;2.30;;
77018;SDS011;66044;53.142;17.962;2023-04-23T11:47:48;7.70;;;2.80;;
77018;SDS011;66044;53.142;17.962;2023-04-23T11:50:22;7.00;;;2.40;;
77018;SDS011;66044;53.142;17.962;2023-04-23T11:52:51;7.80;;;2.70;;
77018;SDS011;66044;53.142;17.962;2023-04-23T11:55:18;7.00;;;2.10;;
77018;SDS011;66044;53.142;17.962;2023-04-23T11:57:45;7.20;;;2.40;;
77018;SDS011;66044;53.142;17.962;2023-04-23T12:00:14;7.40;;;2.00;;
77018;SDS011;66044;53.142;17.962;2023-04-23T12:08:08;6.00;;;1.90;;
77018;SDS011;66044;53.142;17.962;2023-04-23T12:10:44;6.80;;;2.30;;
77018;SDS011;66044;53.142;17.962;2023-04-23T12:13:12;7.80;;;2.00;;
77018;SDS011;66044;53.142;17.962;2023-04-23T12:15:44;6.40;;;2.30;;
77018;SDS011;66044;53.142;17.962;2023-04-23T12:18:15;7.50;;;2.30;;
77018;SDS011;66044;53.142;17.962;2023-04-23T12:20:42;6.90;;;2.30;;
77018;SDS011;66044;53.142;17.962;2023-04-23T12:23:09;6.20;;;1.50;;
77018;SDS011;66044;53.142;17.962;2023-04-23T12:25:36;5.70;;;1.80;;
77018;SDS011;66044;53.142;17.962;2023-04-23T12:28:02;7.10;;;1.80;;
77018;SDS011;66044;53.142;17.962;2023-04-23T12:30:32;6.20;;;1.90;;
77018;SDS011;66044;53.142;17.962;2023-04-23T12:33:00;7.10;;;2.00;;
77018;SDS011;66044;53.142;17.962;2023-04-23T12:36:09;5.60;;;1.80;;
77018;SDS011;66044;53.142;17.962;2023-04-23T12:38:26;5.80;;;2.10;;
77018;SDS011;66044;53.142;17.962;2023-04-23T12:40:57;6.20;;;2.60;;
77018;SDS011;66044;53.142;17.962;2023-04-23T12:43:25;6.80;;;2.30;;
77018;SDS011;66044;53.142;17.962;2023-04-23T12:45:55;6.90;;;2.90;;
77018;SDS011;66044;53.142;17.962;2023-04-23T12:48:21;7.80;;;2.50;;
77018;SDS011;66044;53.142;17.962;2023-04-23T12:50:48;9.10;;;3.90;;
77018;SDS011;66044;53.142;17.962;2023-04-23T12:53:14;8.80;;;2.80;;
77018;SDS011;66044;53.142;17.962;2023-04-23T12:55:41;8.70;;;2.80;;
77018;SDS011;66044;53.142;17.962;2023-04-23T12:58:10;11.30;;;4.90;;
77018;SDS011;66044;53.142;17.962;2023-04-23T13:00:37;7.10;;;2.50;;
77018;SDS011;66044;53.142;17.962;2023-04-23T13:03:04;7.50;;;2.50;;
77018;SDS011;66044;53.142;17.962;2023-04-23T13:05:30;10.60;;;3.90;;
77018;SDS011;66044;53.142;17.962;2023-04-23T13:07:56;6.50;;;2.10;;
77018;SDS011;66044;53.142;17.962;2023-04-23T13:10:23;8.10;;;3.10;;
77018;SDS011;66044;53.142;17.962;2023-04-23T13:12:49;8.90;;;3.50;;
77018;SDS011;66044;53.142;17.962;2023-04-23T13:15:16;7.60;;;3.20;;
77018;SDS011;66044;53.142;17.962;2023-04-23T13:17:43;11.50;;;4.20;;
77018;SDS011;66044;53.142;17.962;2023-04-23T13:20:10;9.00;;;3.00;;
77018;SDS011;66044;53.142;17.962;2023-04-23T13:22:36;6.20;;;2.40;;
77018;SDS011;66044;53.142;17.962;2023-04-23T13:25:03;4.90;;;2.00;;
77018;SDS011;66044;53.142;17.962;2023-04-23T13:27:30;6.80;;;2.10;;
77018;SDS011;66044;53.142;17.962;2023-04-23T13:29:56;8.00;;;2.30;;
77018;SDS011;66044;53.142;17.962;2023-04-23T13:32:23;7.00;;;2.40;;
77018;SDS011;66044;53.142;17.962;2023-04-23T13:34:52;7.50;;;2.20;;
77018;SDS011;66044;53.142;17.962;2023-04-23T13:37:18;6.30;;;2.10;;
77018;SDS011;66044;53.142;17.962;2023-04-23T13:39:45;7.50;;;2.30;;
77018;SDS011;66044;53.142;17.962;2023-04-23T13:42:11;5.80;;;2.40;;
77018;SDS011;66044;53.142;17.962;2023-04-23T13:44:37;5.90;;;2.30;;
77018;SDS011;66044;53.142;17.962;2023-04-23T13:47:04;5.90;;;2.10;;
77018;SDS011;66044;53.142;17.962;2023-04-23T13:49:30;6.80;;;2.60;;
77018;SDS011;66044;53.142;17.962;2023-04-23T13:51:57;7.40;;;2.50;;
77018;SDS011;66044;53.142;17.962;2023-04-23T13:54:26;7.70;;;2.30;;
77018;SDS011;66044;53.142;17.962;2023-04-23T13:56:53;6.80;;;2.40;;
77018;SDS011;66044;53.142;17.962;2023-04-23T13:59:20;6.50;;;2.60;;
77018;SDS011;66044;53.142;17.962;2023-04-23T14:01:47;6.60;;;2.30;;
77018;SDS011;66044;53.142;17.962;2023-04-23T14:04:15;8.40;;;3.40;;
77018;SDS011;66044;53.142;17.962;2023-04-23T14:06:41;10.00;;;3.00;;
77018;SDS011;66044;53.142;17.962;2023-04-23T14:09:09;7.80;;;3.30;;
77018;SDS011;66044;53.142;17.962;2023-04-23T14:11:36;7.80;;;3.00;;
77018;SDS011;66044;53.142;17.962;2023-04-23T14:14:04;7.40;;;2.30;;
77018;SDS011;66044;53.142;17.962;2023-04-23T14:16:31;9.70;;;2.60;;
77018;SDS011;66044;53.142;17.962;2023-04-23T14:18:57;7.50;;;3.10;;
77018;SDS011;66044;53.142;17.962;2023-04-23T14:21:23;7.10;;;3.30;;
77018;SDS011;66044;53.142;17.962;2023-04-23T14:23:54;9.20;;;2.60;;
77018;SDS011;66044;53.142;17.962;2023-04-23T14:28:52;7.20;;;2.40;;
77018;SDS011;66044;53.142;17.962;2023-04-23T14:31:22;8.40;;;2.40;;
77018;SDS011;66044;53.142;17.962;2023-04-23T14:33:49;9.60;;;2.30;;
77018;SDS011;66044;53.142;17.962;2023-04-23T14:36:15;6.10;;;2.40;;
77018;SDS011;66044;53.142;17.962;2023-04-23T14:38:42;7.60;;;2.60;;